Aérodrome :
LOGIN :

S'inscrire | Disclaimer

   EN    FR    IT 

 










Légende :    VFR   VFR Marginal   IFR   IFR Intensif   IFR Très Intensif
Visi : 
Plafond : 
>= 8 km
>= 3000ft
5 à 8 km
1000 à 3000 ft
1500m à 5 km
500 à 1000 ft
800 à 1500m
200 à 500 ft
< 800m
< 200 ft
Symboles :   Orages  Brouillard  Fortes neiges  Fortes précipitations  Vent > 20 kt
SIGMETs :   Divers  Orages  Givrage  Turbulence  Onde Orograph.  Cendres Volcan.







- Altitude de l'aérodrome : 160 ft
- Code IATA : FMO


EDDG - Münster Osnabrück Int.

DERNIER METAR :
  • 101720Z 28011KT 9999 FEW020 SCT035 04/01 Q1019 NOSIG

METARs EXPIRÉS :
  • 101650Z 28013KT 9999 -SHRA SCT020TCU BKN035 05/01 Q1019 NOSIG
  • 101620Z 27012KT 9999 SCT035 05/01 Q1019 TEMPO SHRA
  • 101550Z 28011KT 250V310 9999 FEW035 04/01 Q1019 NOSIG
  • 101520Z 27012KT 9999 SCT038 04/01 Q1019 NOSIG
  • 101450Z 28012KT 250V310 9999 FEW026 05/01 Q1018 NOSIG

TAF TAF EDDG
Valide du 10 à 18h jusqu'au 11 à 18h UTC


101700Z 1018/1118 27010KT 9999 SCT020 BKN030
PROB30
TEMPO 1018/1021 SHRA BKN014TCU
BECMG 1113/1116 31005KT
Pas de NOTAMs connus pour ce terrain.
1 SIGMET publié pour la FIR Langen (EDGG) :
 
Turbulence forte
EDGG SIGMET 2 VALID 101704/102000 EDZF
EDGG LANGEN FIR SEV TURB FCST APRX 40NM WID LINE BTN N5103 E00555 - N4755 E00906 FL180/240 MOV E NC=



MET'MAP, la Météo Aéronautique d'un coup d'oeil ! - Copyright ORBIFLY Décembre 2007 - Disclaimer

ORBIFLY MET'MAP TEAM :

Programmation & Développement : Alexandra Zaïnal
Conception & Développement : Baudouin d'Aumeries
Co-Programmation & Développement : Marc-Olivier Méhu
Soutien technique & logistique : Manuel Goepfert

Contact : metmap@orbifly.com




SOURCES & CREDITS :

   NOAA